createdAt,value
2022-10-18T00:00:20.126Z,15.74
2022-10-18T00:02:46.960Z,15.75
2022-10-18T00:05:13.684Z,15.80
2022-10-18T00:07:40.521Z,15.84
2022-10-18T00:10:09.071Z,15.75
2022-10-18T00:12:37.741Z,15.73
2022-10-18T00:15:07.250Z,15.81
2022-10-18T00:17:35.911Z,15.87
2022-10-18T00:20:04.303Z,15.90
2022-10-18T00:22:31.750Z,15.87
2022-10-18T00:24:58.724Z,15.87
2022-10-18T00:27:25.480Z,15.78
2022-10-18T00:29:53.349Z,15.77
2022-10-18T00:32:20.461Z,15.78
2022-10-18T00:34:48.856Z,15.79
2022-10-18T00:37:16.214Z,15.72
2022-10-18T00:39:43.858Z,15.69
2022-10-18T00:42:17.247Z,15.71
2022-10-18T00:45:15.559Z,15.75
2022-10-18T00:47:48.503Z,15.77
2022-10-18T00:50:20.351Z,15.77
2022-10-18T00:52:52.458Z,15.84
2022-10-18T00:55:20.118Z,15.90
2022-10-18T00:57:47.782Z,15.91
2022-10-18T01:00:15.219Z,15.97
2022-10-18T01:02:45.333Z,15.95
2022-10-18T01:05:13.675Z,15.87
2022-10-18T01:08:27.793Z,15.89
2022-10-18T01:11:11.650Z,15.92
2022-10-18T01:14:01.006Z,15.91
2022-10-18T01:16:38.017Z,15.92
2022-10-18T01:19:25.004Z,15.89
2022-10-18T01:22:02.446Z,15.80
2022-10-18T01:25:06.457Z,15.82
2022-10-18T01:27:49.025Z,15.88
2022-10-18T01:30:37.940Z,15.84
2022-10-18T01:33:33.334Z,15.90
2022-10-18T01:36:08.531Z,15.92
2022-10-18T01:38:38.779Z,15.86
2022-10-18T01:41:13.205Z,15.97
2022-10-18T01:43:46.398Z,16.07
2022-10-18T01:46:22.220Z,16.14
2022-10-18T01:48:51.155Z,16.21
2022-10-18T01:51:20.202Z,16.27
2022-10-18T01:53:47.057Z,16.28
2022-10-18T01:56:25.413Z,16.35
2022-10-18T01:59:24.274Z,16.40
2022-10-18T02:02:06.723Z,16.46
2022-10-18T02:04:46.486Z,16.46
2022-10-18T02:07:27.490Z,16.45
2022-10-18T02:10:05.657Z,16.49
2022-10-18T02:12:35.993Z,16.55
2022-10-18T02:15:07.510Z,16.57
2022-10-18T02:17:37.629Z,16.62
2022-10-18T02:20:08.962Z,16.63
2022-10-18T02:22:38.852Z,16.65
2022-10-18T02:25:13.323Z,16.66
2022-10-18T02:27:40.251Z,16.68
2022-10-18T02:30:09.199Z,16.69
2022-10-18T02:32:43.147Z,16.72
2022-10-18T02:35:19.876Z,16.70
2022-10-18T02:37:50.531Z,16.68
2022-10-18T02:40:17.856Z,16.71
2022-10-18T02:42:48.123Z,16.72
2022-10-18T02:45:15.904Z,16.76
2022-10-18T02:47:44.119Z,16.72
2022-10-18T02:50:11.199Z,16.69
2022-10-18T02:52:38.027Z,16.69
2022-10-18T02:55:06.869Z,16.72
2022-10-18T02:57:34.526Z,16.77
2022-10-18T03:00:02.449Z,16.80
2022-10-18T03:02:29.254Z,16.82
2022-10-18T03:04:57.414Z,16.71
2022-10-18T03:07:24.348Z,16.62
2022-10-18T03:09:51.388Z,16.63
2022-10-18T03:12:18.403Z,16.68
2022-10-18T03:14:45.246Z,16.70
2022-10-18T03:17:12.104Z,16.64
2022-10-18T03:19:38.911Z,16.57
2022-10-18T03:22:07.123Z,16.59
2022-10-18T03:24:34.220Z,16.64
2022-10-18T03:27:00.978Z,16.69
2022-10-18T03:29:27.780Z,16.71
2022-10-18T03:31:54.547Z,16.75
2022-10-18T03:34:21.310Z,16.79
2022-10-18T03:36:48.111Z,16.79
2022-10-18T03:39:16.316Z,16.75
2022-10-18T03:41:43.072Z,16.75
2022-10-18T03:44:10.115Z,16.75
2022-10-18T03:46:36.906Z,16.77
2022-10-18T03:49:03.686Z,16.75
2022-10-18T03:51:30.502Z,16.73
2022-10-18T03:53:57.305Z,16.69
2022-10-18T03:56:25.603Z,16.70
2022-10-18T03:58:52.400Z,16.68
2022-10-18T04:01:19.306Z,16.59
2022-10-18T04:03:46.165Z,16.24
2022-10-18T04:06:12.924Z,16.22
2022-10-18T04:08:39.816Z,16.26
2022-10-18T04:11:07.715Z,16.33
2022-10-18T04:13:36.292Z,16.40
2022-10-18T04:16:03.215Z,16.47
2022-10-18T04:18:30.077Z,16.40
2022-10-18T04:20:56.907Z,16.45
2022-10-18T04:23:23.957Z,16.50
2022-10-18T04:25:50.953Z,16.60
2022-10-18T04:28:17.764Z,16.69
2022-10-18T04:30:50.598Z,16.76
2022-10-18T04:33:17.545Z,16.80
2022-10-18T04:35:44.386Z,16.86
2022-10-18T04:38:11.783Z,16.70
2022-10-18T04:40:38.640Z,16.81
2022-10-18T04:43:05.804Z,16.86
2022-10-18T04:45:38.282Z,16.90
2022-10-18T04:48:06.879Z,16.96
2022-10-18T04:50:33.738Z,16.99
2022-10-18T04:53:00.542Z,16.94
2022-10-18T04:55:27.299Z,16.96
2022-10-18T04:57:54.127Z,17.00
2022-10-18T05:00:21.144Z,17.04
2022-10-18T05:02:48.157Z,17.05
2022-10-18T05:05:16.434Z,16.91
2022-10-18T05:07:43.166Z,16.83
2022-10-18T05:10:09.975Z,16.66
2022-10-18T05:12:36.734Z,16.64
2022-10-18T05:15:04.804Z,16.67
2022-10-18T05:17:31.772Z,16.54
2022-10-18T05:19:58.678Z,16.55
2022-10-18T05:22:26.852Z,16.46
2022-10-18T05:24:53.632Z,16.44
2022-10-18T05:27:20.487Z,16.48
2022-10-18T05:29:47.394Z,16.49
2022-10-18T05:32:14.318Z,16.50
2022-10-18T05:34:41.061Z,16.47
2022-10-18T05:37:07.842Z,16.51
2022-10-18T05:39:37.051Z,16.49
2022-10-18T05:42:04.387Z,16.58
2022-10-18T05:44:31.332Z,16.61
2022-10-18T05:46:58.177Z,16.65
2022-10-18T05:49:24.934Z,16.70
2022-10-18T05:52:14.454Z,16.66
2022-10-18T05:54:47.546Z,16.68
2022-10-18T05:57:14.839Z,16.63
2022-10-18T05:59:41.623Z,16.50
2022-10-18T06:02:10.444Z,16.48
2022-10-18T06:04:38.709Z,16.51
2022-10-18T06:07:08.886Z,16.60
2022-10-18T06:09:35.878Z,16.72
2022-10-18T06:12:06.817Z,16.82
2022-10-18T06:14:33.818Z,16.91
2022-10-18T06:17:00.861Z,16.92
2022-10-18T06:19:27.726Z,16.95
2022-10-18T06:21:54.514Z,16.99
2022-10-18T06:24:21.677Z,17.07
2022-10-18T06:26:48.515Z,17.19
2022-10-18T06:29:16.697Z,17.35
2022-10-18T06:31:43.478Z,17.47
2022-10-18T06:34:10.290Z,17.62
2022-10-18T06:36:37.157Z,17.80
2022-10-18T06:39:04.161Z,17.85
2022-10-18T06:41:31.029Z,17.94
2022-10-18T06:44:18.385Z,18.07
2022-10-18T06:46:48.346Z,18.33
2022-10-18T06:49:19.033Z,18.73
2022-10-18T06:51:48.770Z,18.74
2022-10-18T06:54:18.775Z,18.94
2022-10-18T06:56:46.414Z,18.88
2022-10-18T06:59:13.916Z,18.73
2022-10-18T07:01:45.433Z,18.31
2022-10-18T07:04:15.146Z,17.96
2022-10-18T07:06:42.146Z,17.90
2022-10-18T07:09:09.049Z,17.92
2022-10-18T07:11:35.941Z,17.93
2022-10-18T07:14:03.578Z,18.03
2022-10-18T07:16:32.892Z,18.03
2022-10-18T07:19:01.376Z,18.03
2022-10-18T07:21:33.958Z,18.06
2022-10-18T07:24:01.015Z,18.01
2022-10-18T07:26:32.543Z,18.04
2022-10-18T07:29:06.617Z,18.11
2022-10-18T07:31:35.056Z,18.08
2022-10-18T07:34:04.543Z,17.99
2022-10-18T07:36:31.987Z,17.91
2022-10-18T07:38:59.433Z,17.92
2022-10-18T07:41:26.537Z,17.96
2022-10-18T07:44:02.347Z,17.99
2022-10-18T07:46:29.183Z,18.02
2022-10-18T07:48:56.116Z,17.92
2022-10-18T07:51:24.291Z,17.98
2022-10-18T07:53:51.106Z,18.06
2022-10-18T07:56:20.682Z,18.15
2022-10-18T07:58:50.193Z,18.21
2022-10-18T08:01:17.496Z,18.26
2022-10-18T08:03:44.441Z,18.33
2022-10-18T08:06:14.583Z,18.40
2022-10-18T08:08:43.310Z,18.46
2022-10-18T08:11:14.664Z,18.49
2022-10-18T08:13:42.551Z,18.55
2022-10-18T08:16:12.520Z,18.55
2022-10-18T08:18:40.266Z,18.53
2022-10-18T08:21:14.172Z,18.51
2022-10-18T08:23:48.757Z,18.52
2022-10-18T08:26:18.587Z,18.53
2022-10-18T08:28:53.697Z,18.52
2022-10-18T08:31:25.657Z,18.59
2022-10-18T08:33:54.576Z,18.62
2022-10-18T08:36:21.376Z,18.63
2022-10-18T08:38:49.542Z,18.66
2022-10-18T08:42:01.093Z,18.69
2022-10-18T08:44:31.702Z,18.66
2022-10-18T08:47:04.414Z,18.67
2022-10-18T08:49:44.192Z,18.73
2022-10-18T08:52:25.639Z,18.71
2022-10-18T08:55:01.998Z,18.56
2022-10-18T08:57:31.052Z,18.64
2022-10-18T08:59:58.234Z,18.74
2022-10-18T09:02:44.076Z,18.83
2022-10-18T09:05:25.307Z,18.94
2022-10-18T09:08:32.009Z,19.08
2022-10-18T09:11:23.363Z,19.19
2022-10-18T09:14:20.347Z,19.44
2022-10-18T09:17:07.127Z,19.82
2022-10-18T09:19:52.457Z,21.00
2022-10-18T09:22:22.387Z,21.31
2022-10-18T09:25:05.846Z,22.29
2022-10-18T09:27:46.819Z,22.89
2022-10-18T09:30:29.377Z,24.61
2022-10-18T09:33:13.044Z,26.09
2022-10-18T09:36:16.130Z,26.49
2022-10-18T09:38:51.301Z,27.37
2022-10-18T09:41:25.653Z,26.85
2022-10-18T09:44:01.264Z,26.02
2022-10-18T09:46:56.582Z,25.04
2022-10-18T09:49:55.998Z,24.62
2022-10-18T09:52:31.683Z,24.29
2022-10-18T09:55:18.515Z,24.09
2022-10-18T09:57:53.226Z,23.96
2022-10-18T10:00:31.125Z,24.05
2022-10-18T10:03:10.931Z,24.14
2022-10-18T10:05:37.872Z,24.06
2022-10-18T10:08:07.279Z,24.01
2022-10-18T10:10:49.367Z,23.85
2022-10-18T10:13:19.694Z,23.80
2022-10-18T10:19:54.085Z,23.54
2022-10-18T10:22:33.937Z,23.69
2022-10-18T10:25:01.653Z,25.13
2022-10-18T10:27:36.994Z,25.35
2022-10-18T10:30:20.650Z,25.60
2022-10-18T10:32:51.965Z,25.96
2022-10-18T10:35:52.613Z,26.35
2022-10-18T10:38:24.435Z,27.82
2022-10-18T10:40:52.450Z,27.44
2022-10-18T10:43:37.084Z,28.11
2022-10-18T10:46:12.909Z,27.26
2022-10-18T10:48:49.134Z,27.90
2022-10-18T10:51:27.773Z,28.35
2022-10-18T10:54:02.391Z,30.11
2022-10-18T10:56:33.365Z,30.58
2022-10-18T10:59:14.028Z,32.05
2022-10-18T11:01:45.352Z,31.69
2022-10-18T11:13:05.110Z,30.56
2022-10-18T11:20:06.710Z,29.48
2022-10-18T11:23:15.822Z,30.82
2022-10-18T11:26:07.381Z,29.99
2022-10-18T11:28:59.653Z,28.75
2022-10-18T11:31:35.919Z,28.12
2022-10-18T11:34:38.632Z,27.81
2022-10-18T11:37:29.444Z,27.57
2022-10-18T11:40:30.299Z,26.61
2022-10-18T11:43:11.651Z,26.05
2022-10-18T11:45:49.770Z,25.84
2022-10-18T11:48:40.457Z,25.58
2022-10-18T11:51:34.080Z,25.67
2022-10-18T11:54:43.446Z,25.34
2022-10-18T11:57:31.092Z,25.00
2022-10-18T12:00:17.810Z,24.72
2022-10-18T12:03:06.852Z,24.21
2022-10-18T12:05:39.172Z,23.97
2022-10-18T12:08:13.385Z,23.93
2022-10-18T12:11:04.060Z,23.79
2022-10-18T12:13:50.993Z,23.50
2022-10-18T12:16:45.414Z,23.45
2022-10-18T12:19:23.512Z,23.17
2022-10-18T12:21:56.284Z,23.29
2022-10-18T12:24:28.525Z,23.38
2022-10-18T12:27:01.903Z,23.59
2022-10-18T12:29:44.349Z,23.60
2022-10-18T12:33:02.057Z,23.54
2022-10-18T12:35:44.630Z,23.47
2022-10-18T12:38:25.158Z,23.63
2022-10-18T12:41:58.531Z,23.77
2022-10-18T13:01:55.953Z,23.93
2022-10-18T13:04:48.606Z,23.83
2022-10-18T13:07:34.266Z,23.91
2022-10-18T13:10:41.859Z,23.71
2022-10-18T13:13:45.880Z,23.66
2022-10-18T13:16:36.224Z,23.60
2022-10-18T13:19:21.487Z,23.50
2022-10-18T13:22:08.819Z,23.39
2022-10-18T13:24:44.936Z,23.34
2022-10-18T13:31:28.413Z,23.47
2022-10-18T13:39:05.625Z,23.73
2022-10-18T13:42:32.855Z,23.81
2022-10-18T13:45:54.589Z,23.77
2022-10-18T13:48:48.013Z,23.83
2022-10-18T13:51:40.900Z,23.61
2022-10-18T13:54:35.663Z,23.56
2022-10-18T13:57:24.517Z,23.61
2022-10-18T14:00:26.975Z,23.61
2022-10-18T14:03:51.235Z,23.51
2022-10-18T14:06:16.114Z,23.59
2022-10-18T14:12:36.440Z,23.49
2022-10-18T14:15:41.737Z,23.22
2022-10-18T14:18:25.014Z,23.26
2022-10-18T14:21:16.807Z,23.34
2022-10-18T14:23:47.807Z,23.29
2022-10-18T14:26:25.647Z,23.17
2022-10-18T14:29:16.258Z,23.06
2022-10-18T14:32:05.014Z,22.97
2022-10-18T14:34:35.707Z,23.03
2022-10-18T14:37:06.818Z,22.95
2022-10-18T14:39:40.779Z,22.95
2022-10-18T14:45:40.610Z,22.90
2022-10-18T14:48:46.100Z,22.88
2022-10-18T14:51:13.087Z,22.76
2022-10-18T14:53:45.158Z,22.86
2022-10-18T14:56:43.064Z,22.79
2022-10-18T14:59:25.838Z,22.75
2022-10-18T15:02:16.399Z,22.69
2022-10-18T15:04:58.200Z,22.64
2022-10-18T15:11:22.031Z,22.49
2022-10-18T15:14:53.111Z,22.49
2022-10-18T15:17:30.747Z,22.24
2022-10-18T15:23:46.732Z,22.11
2022-10-18T15:26:28.794Z,22.18
2022-10-18T15:29:26.979Z,22.02
2022-10-18T15:31:54.982Z,22.06
2022-10-18T15:35:16.608Z,22.00
2022-10-18T15:37:47.364Z,21.99
2022-10-18T15:40:35.986Z,21.85
2022-10-18T15:43:26.431Z,21.76
2022-10-18T15:46:01.584Z,21.66
2022-10-18T15:48:36.504Z,21.57
2022-10-18T15:51:06.233Z,21.44
2022-10-18T15:53:42.285Z,21.38
2022-10-18T15:56:28.013Z,21.26
2022-10-18T15:58:57.309Z,21.23
2022-10-18T16:01:36.794Z,21.21
2022-10-18T16:04:15.712Z,21.10
2022-10-18T16:06:42.535Z,21.04
2022-10-18T16:09:17.079Z,21.06
2022-10-18T16:11:47.724Z,20.99
2022-10-18T16:14:24.297Z,20.97
2022-10-18T16:17:27.306Z,20.92
2022-10-18T16:19:54.788Z,20.89
2022-10-18T16:22:32.258Z,20.93
2022-10-18T16:25:07.184Z,20.78
2022-10-18T16:27:34.117Z,20.71
2022-10-18T16:30:06.092Z,20.63
2022-10-18T16:32:40.809Z,20.66
2022-10-18T16:38:51.577Z,20.72
2022-10-18T16:43:12.123Z,20.60
2022-10-18T16:48:35.215Z,20.59
2022-10-18T16:51:35.516Z,20.53
2022-10-18T16:54:19.070Z,20.43
2022-10-18T16:56:51.822Z,20.46
2022-10-18T17:00:01.601Z,20.54
2022-10-18T17:06:27.649Z,20.50
2022-10-18T17:08:55.919Z,20.47
2022-10-18T17:11:26.167Z,20.44
2022-10-18T17:13:53.376Z,20.42
2022-10-18T17:16:25.467Z,20.42
2022-10-18T17:19:06.048Z,20.35
2022-10-18T17:21:41.795Z,20.39
2022-10-18T17:24:12.455Z,20.32
2022-10-18T17:26:40.263Z,20.30
2022-10-18T17:29:18.428Z,20.31
2022-10-18T17:31:53.702Z,20.32
2022-10-18T17:35:34.363Z,20.33
2022-10-18T17:38:08.728Z,20.25
2022-10-18T17:40:50.044Z,20.24
2022-10-18T18:05:25.217Z,19.85
2022-10-18T18:08:06.891Z,19.88
2022-10-18T18:10:46.804Z,19.83
2022-10-18T18:14:24.675Z,19.83
2022-10-18T18:21:33.985Z,19.68
2022-10-18T18:24:05.454Z,19.68
2022-10-18T18:26:42.949Z,19.59
2022-10-18T18:29:12.927Z,19.53
2022-10-18T18:31:43.810Z,19.48
2022-10-18T18:34:11.806Z,19.47
2022-10-18T18:36:40.969Z,19.45
2022-10-18T18:39:25.698Z,19.37
2022-10-18T18:41:54.103Z,19.36
2022-10-18T18:44:25.509Z,19.28
2022-10-18T18:46:55.266Z,19.23
2022-10-18T18:49:22.850Z,19.11
2022-10-18T18:51:51.998Z,19.08
2022-10-18T18:54:21.610Z,19.11
2022-10-18T18:56:49.688Z,19.09
2022-10-18T18:59:18.153Z,19.01
2022-10-18T19:01:45.816Z,18.93
2022-10-18T19:04:13.962Z,18.87
2022-10-18T19:06:45.338Z,18.82
2022-10-18T19:09:18.339Z,18.77
2022-10-18T19:11:48.406Z,18.72
2022-10-18T19:17:03.906Z,18.74
2022-10-18T19:19:36.611Z,18.76
2022-10-18T19:22:04.765Z,18.74
2022-10-18T19:24:33.445Z,18.76
2022-10-18T19:27:04.388Z,18.58
2022-10-18T19:29:34.927Z,18.45
2022-10-18T19:32:05.187Z,18.15
2022-10-18T19:34:32.759Z,18.10
2022-10-18T19:37:00.493Z,18.07
2022-10-18T19:39:33.521Z,17.95
2022-10-18T19:42:03.605Z,17.93
2022-10-18T19:44:33.474Z,18.12
2022-10-18T19:47:00.828Z,18.07
2022-10-18T19:50:03.313Z,18.07
2022-10-18T19:53:08.825Z,18.12
2022-10-18T19:55:40.809Z,18.16
2022-10-18T19:58:07.852Z,18.21
2022-10-18T20:00:34.850Z,18.23
2022-10-18T20:03:02.030Z,18.13
2022-10-18T20:09:35.410Z,17.85
2022-10-18T20:57:22.478Z,16.92
2022-10-18T20:59:49.466Z,16.93
2022-10-18T21:02:16.355Z,17.02
2022-10-18T21:04:43.190Z,17.06
2022-10-18T21:07:09.964Z,17.11
2022-10-18T21:09:36.787Z,17.11
2022-10-18T21:12:51.314Z,17.09
2022-10-18T21:29:21.945Z,17.14
2022-10-18T21:37:48.806Z,16.98
2022-10-18T21:44:45.048Z,16.46
2022-10-18T21:47:27.228Z,16.34
2022-10-18T21:50:03.734Z,16.45
2022-10-18T21:52:34.318Z,16.46
2022-10-18T21:55:05.439Z,16.31
2022-10-18T21:57:32.347Z,16.18
2022-10-18T22:00:00.596Z,15.96
2022-10-18T22:02:27.449Z,15.88
2022-10-18T22:04:54.506Z,15.95
2022-10-18T22:07:21.283Z,16.01
2022-10-18T22:09:48.082Z,16.06
2022-10-18T22:12:15.068Z,16.16
2022-10-18T22:14:41.852Z,16.20
2022-10-18T22:17:10.003Z,16.23
2022-10-18T22:19:36.823Z,16.27
2022-10-18T22:22:03.744Z,16.32
2022-10-18T22:24:30.591Z,16.34
2022-10-18T22:26:57.441Z,16.35
2022-10-18T22:29:24.275Z,15.91
2022-10-18T22:31:53.900Z,15.81
2022-10-18T22:34:25.199Z,15.80
2022-10-18T22:36:52.223Z,15.83
2022-10-18T22:39:19.507Z,15.84
2022-10-18T22:41:46.612Z,15.77
2022-10-18T22:44:14.975Z,15.79
2022-10-18T22:46:42.878Z,15.80
2022-10-18T22:49:11.369Z,15.82
2022-10-18T22:51:40.278Z,15.83
2022-10-18T22:54:07.318Z,15.83
2022-10-18T22:56:34.443Z,15.83
2022-10-18T22:59:01.320Z,15.73
2022-10-18T23:01:28.263Z,15.78
2022-10-18T23:03:56.008Z,15.86
2022-10-18T23:06:25.943Z,15.89
2022-10-18T23:08:57.017Z,15.93
2022-10-18T23:11:25.989Z,15.98
2022-10-18T23:13:53.330Z,16.01
2022-10-18T23:16:20.674Z,16.08
2022-10-18T23:18:50.136Z,16.11
2022-10-18T23:21:17.392Z,16.13
2022-10-18T23:23:44.452Z,16.11
2022-10-18T23:26:15.524Z,16.06
2022-10-18T23:28:45.919Z,16.02
2022-10-18T23:31:17.458Z,15.95
2022-10-18T23:33:46.879Z,15.55
2022-10-18T23:36:14.609Z,15.57
2022-10-18T23:38:42.394Z,15.46
2022-10-18T23:41:13.516Z,15.14
2022-10-18T23:43:40.923Z,15.01
2022-10-18T23:46:08.854Z,14.95
2022-10-18T23:49:13.083Z,14.99
2022-10-18T23:51:57.574Z,15.13
2022-10-18T23:54:24.704Z,15.11
2022-10-18T23:57:14.025Z,15.19
2022-10-18T23:59:41.404Z,15.15
